Time;durP1;ratioP1;P1;durP2;ratioP2;P2;SDS_P1;SDS_P2;PMS_P1;PMS_P2;Temp;Humidity;BMP_temperature;BMP_pressure;BME280_temperature;BME280_humidity;BME280_pressure;Samples;Min_cycle;Max_cycle;Signal;HPM_P1;HPM_P2
2022/11/03 00:01:52;;;;;;;12.13;4.33;;;;;;;16.59;44.30;97341.25;4968307;28;20203;-74
2022/11/03 00:04:21;;;;;;;11.17;4.07;;;;;;;16.70;44.67;97337.97;4968233;28;20184;-73
2022/11/03 00:06:50;;;;;;;5.70;3.60;;;;;;;16.95;43.91;97353.72;4968284;28;20198;-74
2022/11/03 00:09:19;;;;;;;8.00;4.00;;;;;;;16.88;44.24;97344.59;4968403;28;20194;-74
2022/11/03 00:11:49;;;;;;;14.83;4.60;;;;;;;16.86;44.31;97338.63;4968606;28;20203;-74
2022/11/03 00:14:17;;;;;;;10.67;4.07;;;;;;;17.00;43.74;97351.66;4967155;28;20220;-74
2022/11/03 00:16:44;;;;;;;8.73;4.00;;;;;;;16.93;43.83;97347.75;4968837;28;20189;-75
2022/11/03 00:19:13;;;;;;;8.10;4.00;;;;;;;17.04;43.79;97353.13;4968204;28;20240;-74
2022/11/03 00:21:40;;;;;;;9.50;4.30;;;;;;;16.95;43.80;97343.25;4966937;28;20193;-75
2022/11/03 00:24:07;;;;;;;11.53;3.83;;;;;;;16.71;44.72;97357.94;4968210;28;20204;-74
2022/11/03 00:26:35;;;;;;;9.07;4.40;;;;;;;16.73;44.75;97353.47;4968112;28;20328;-74
2022/11/03 00:29:08;;;;;;;6.57;3.70;;;;;;;16.71;44.66;97347.50;4966860;28;20189;-75
2022/11/03 00:31:37;;;;;;;12.13;4.20;;;;;;;16.56;44.97;97335.41;4967944;28;20204;-74
2022/11/03 00:34:05;;;;;;;11.77;4.07;;;;;;;16.46;44.91;97339.53;4968261;28;20465;-74
2022/11/03 00:36:43;;;;;;;9.50;4.97;;;;;;;16.43;44.73;97350.16;4968024;28;20189;-75
2022/11/03 00:39:11;;;;;;;6.70;3.37;;;;;;;16.55;44.40;97346.81;4967919;28;20192;-74
2022/11/03 00:41:39;;;;;;;12.77;3.80;;;;;;;16.61;44.24;97336.78;4967860;28;20193;-74
2022/11/03 00:44:06;;;;;;;11.63;3.83;;;;;;;16.62;44.44;97350.69;4967901;28;20220;-75
2022/11/03 00:46:35;;;;;;;8.13;3.57;;;;;;;16.68;44.28;97342.44;4966748;28;20224;-75
2022/11/03 00:49:03;;;;;;;9.87;4.10;;;;;;;16.65;44.43;97340.88;4968001;28;20203;-75
2022/11/03 00:51:32;;;;;;;7.80;3.87;;;;;;;16.67;44.47;97349.44;4967976;28;20216;-75
2022/11/03 00:54:03;;;;;;;6.37;3.40;;;;;;;16.69;44.50;97349.38;4967892;28;20200;-75
2022/11/03 00:56:34;;;;;;;8.00;3.87;;;;;;;16.52;44.83;97349.63;4967768;28;20197;-75
2022/11/03 00:59:02;;;;;;;9.57;4.03;;;;;;;16.40;45.36;97345.16;4970358;28;20280;-75
2022/11/03 01:01:32;;;;;;;9.93;4.63;;;;;;;16.39;45.25;97343.44;4971853;28;20210;-75
2022/11/03 01:06:51;;;;;;;10.30;4.03;;;;;;;16.33;45.66;97338.63;4971610;28;20989;-77
2022/11/03 01:09:37;;;;;;;9.27;4.07;;;;;;;16.29;45.54;97341.44;4971668;28;20181;-75
2022/11/03 01:12:06;;;;;;;9.50;3.97;;;;;;;16.24;45.62;97343.50;4971522;28;20284;-75
2022/11/03 01:14:36;;;;;;;8.50;4.23;;;;;;;16.35;45.32;97347.19;4971446;28;20197;-75
2022/11/03 01:17:05;;;;;;;9.73;4.17;;;;;;;16.32;45.58;97331.72;4972121;28;20297;-75
2022/11/03 01:19:32;;;;;;;6.10;3.60;;;;;;;16.41;45.10;97326.75;4971304;28;20271;-75
2022/11/03 01:21:59;;;;;;;11.13;3.73;;;;;;;16.59;44.55;97332.59;4971424;28;20208;-75
2022/11/03 01:24:26;;;;;;;6.90;3.23;;;;;;;16.79;44.37;97335.59;4971406;28;20195;-75
2022/11/03 01:26:53;;;;;;;12.90;5.07;;;;;;;16.81;43.93;97319.78;4971267;28;20222;-75
2022/11/03 01:29:20;;;;;;;10.37;4.00;;;;;;;16.92;43.87;97322.50;4954045;28;20202;-75
2022/11/03 01:31:47;;;;;;;8.60;3.73;;;;;;;16.93;43.55;97329.44;4971044;28;20724;-75
2022/11/03 01:34:16;;;;;;;11.20;3.77;;;;;;;17.01;43.68;97327.16;4971330;28;20191;-75
2022/11/03 01:36:44;;;;;;;11.00;3.97;;;;;;;16.85;44.37;97319.50;4969862;28;20199;-74
2022/11/03 01:39:13;;;;;;;8.63;3.90;;;;;;;16.89;44.10;97317.50;4970149;28;20186;-74
2022/11/03 01:41:42;;;;;;;7.77;3.63;;;;;;;16.95;44.00;97323.16;4970961;28;20184;-74
2022/11/03 01:44:08;;;;;;;9.50;4.27;;;;;;;16.96;44.49;97329.25;4971086;28;20197;-75
2022/11/03 01:46:57;;;;;;;9.10;4.10;;;;;;;16.78;44.68;97325.22;4970639;28;20734;-74
2022/11/03 01:49:30;;;;;;;8.77;3.90;;;;;;;16.78;45.07;97326.06;4969475;28;20212;-75
2022/11/03 01:52:12;;;;;;;6.93;3.73;;;;;;;16.79;44.57;97337.38;4971117;28;20207;-75
2022/11/03 01:54:43;;;;;;;8.57;4.33;;;;;;;16.68;44.97;97329.38;4970747;28;20192;-75
2022/11/03 01:57:15;;;;;;;12.73;4.30;;;;;;;16.73;44.93;97343.00;4970631;28;20231;-75
2022/11/03 01:59:45;;;;;;;8.60;4.57;;;;;;;16.72;45.18;97330.84;4970662;28;20287;-75
2022/11/03 02:02:17;;;;;;;13.53;4.13;;;;;;;16.69;45.45;97350.19;4969461;28;20187;-75
2022/11/03 02:04:44;;;;;;;14.03;3.90;;;;;;;16.74;45.40;97344.66;4971105;28;20645;-76
2022/11/03 02:07:22;;;;;;;9.33;3.97;;;;;;;16.74;45.49;97345.50;4970578;28;20184;-77
2022/11/03 02:09:50;;;;;;;10.87;4.77;;;;;;;16.51;45.65;97342.69;4970019;28;20191;-76
2022/11/03 02:12:18;;;;;;;7.33;3.97;;;;;;;16.49;45.63;97341.91;4970565;28;20280;-78
2022/11/03 02:14:55;;;;;;;10.47;4.10;;;;;;;16.59;45.55;97350.91;4969052;28;20255;-77
2022/11/03 02:17:26;;;;;;;8.50;3.87;;;;;;;16.57;45.37;97347.56;4969441;28;20225;-77
2022/11/03 02:20:10;;;;;;;7.83;3.50;;;;;;;16.73;44.93;97345.63;4970303;28;20224;-77
2022/11/03 02:22:42;;;;;;;8.90;4.37;;;;;;;16.78;45.39;97353.97;4970297;28;20193;-77
2022/11/03 02:25:35;;;;;;;11.93;3.90;;;;;;;16.71;45.45;97355.34;4970085;28;20307;-76
2022/11/03 02:28:04;;;;;;;8.33;3.87;;;;;;;16.62;45.53;97361.16;4961966;28;20286;-75
2022/11/03 02:30:55;;;;;;;9.97;4.93;;;;;;;16.39;46.16;97370.44;4970225;28;20197;-75
2022/11/03 02:33:42;;;;;;;9.70;4.50;;;;;;;16.00;47.44;97357.25;4968775;28;20201;-75
2022/11/03 02:36:25;;;;;;;14.63;5.37;;;;;;;15.66;47.51;97324.53;4969840;28;20220;-75
2022/11/03 02:39:15;;;;;;;9.83;4.80;;;;;;;15.83;47.63;97354.84;4969944;28;20703;-76
2022/11/03 02:41:43;;;;;;;10.17;4.30;;;;;;;15.83;47.66;97365.28;4969907;28;20553;-74
2022/11/03 02:44:17;;;;;;;10.60;4.00;;;;;;;15.94;47.70;97361.09;4970243;28;20203;-75
2022/11/03 02:46:48;;;;;;;11.33;5.20;;;;;;;15.99;47.83;97366.88;4968485;28;20624;-75
2022/11/03 02:49:15;;;;;;;15.83;5.40;;;;;;;15.87;48.10;97362.41;4969824;28;20552;-75
2022/11/03 02:51:42;;;;;;;12.47;5.10;;;;;;;15.89;48.29;97380.63;4968294;28;20185;-75
2022/11/03 02:54:43;;;;;;;10.57;5.57;;;;;;;15.78;47.88;97368.22;4969712;28;20251;-75
2022/11/03 02:57:23;;;;;;;9.30;4.83;;;;;;;15.38;48.94;97368.88;4928558;28;20308;-74
2022/11/03 02:59:57;;;;;;;11.40;4.33;;;;;;;15.43;48.95;97366.88;4969565;28;20275;-74
2022/11/03 03:02:35;;;;;;;10.83;4.80;;;;;;;15.39;49.05;97365.34;4952087;28;20721;-74
2022/11/03 03:05:07;;;;;;;12.60;4.73;;;;;;;15.56;48.73;97378.25;4969631;28;20188;-74
2022/11/03 03:07:38;;;;;;;11.30;5.17;;;;;;;15.74;48.00;97384.16;4969492;28;20617;-74
2022/11/03 03:10:37;;;;;;;9.80;4.90;;;;;;;15.99;47.87;97389.56;4969541;28;20181;-73
2022/11/03 03:13:06;;;;;;;13.70;4.73;;;;;;;16.01;47.57;97385.91;4969224;28;20197;-73
2022/11/03 03:16:04;;;;;;;14.20;4.13;;;;;;;16.13;46.78;97385.16;4969217;28;20196;-74
2022/11/03 03:18:59;;;;;;;10.00;4.60;;;;;;;15.99;47.31;97379.13;4969443;28;20203;-74
2022/11/03 03:21:33;;;;;;;13.07;5.10;;;;;;;15.97;47.81;97399.25;4968134;28;20198;-74
2022/11/03 03:24:08;;;;;;;14.53;5.60;;;;;;;15.92;48.36;97381.25;4969127;28;20193;-74
2022/11/03 03:26:43;;;;;;;13.03;4.67;;;;;;;15.99;47.86;97387.75;4969119;28;20600;-75
2022/11/03 03:29:19;;;;;;;13.10;4.47;;;;;;;16.08;47.79;97392.44;4969130;28;20193;-75
2022/11/03 03:31:55;;;;;;;14.33;4.10;;;;;;;16.15;47.31;97396.34;4969042;28;20192;-75
2022/11/03 03:34:25;;;;;;;9.50;4.90;;;;;;;16.02;47.21;97400.66;4969065;28;20199;-74
2022/11/03 03:37:04;;;;;;;10.07;4.30;;;;;;;16.10;47.13;97400.16;4968911;28;20193;-74
2022/11/03 03:39:35;;;;;;;9.37;4.53;;;;;;;16.00;47.33;97399.91;4967584;28;20233;-75
2022/11/03 03:42:03;;;;;;;9.63;4.80;;;;;;;15.87;47.45;97392.91;4968677;28;20189;-75
2022/11/03 03:44:31;;;;;;;10.57;4.50;;;;;;;15.96;47.51;97398.41;4968937;28;20227;-75
2022/11/03 03:47:21;;;;;;;15.57;4.60;;;;;;;16.06;47.07;97402.13;4967348;28;20228;-75
2022/11/03 03:49:48;;;;;;;17.90;5.50;;;;;;;15.92;47.57;97399.53;4967620;28;20193;-75
2022/11/03 03:52:16;;;;;;;15.83;5.53;;;;;;;15.84;47.77;97406.16;4968572;28;20211;-75
2022/11/03 03:54:43;;;;;;;14.20;6.13;;;;;;;15.93;47.56;97401.22;4968465;28;20189;-75
2022/11/03 03:57:17;;;;;;;14.37;6.63;;;;;;;15.99;47.58;97408.66;4968811;28;20191;-75
2022/11/03 03:59:44;;;;;;;13.13;6.83;;;;;;;15.89;47.64;97399.72;4968502;28;20194;-76
2022/11/03 04:02:11;;;;;;;15.23;6.63;;;;;;;15.82;48.07;97406.25;4968482;28;20185;-75
2022/11/03 04:04:39;;;;;;;18.53;8.47;;;;;;;15.94;47.75;97407.28;4968354;28;20190;-75
2022/11/03 04:10:09;;;;;;;16.50;6.43;;;;;;;15.77;48.98;97407.44;4968537;28;20636;-75
2022/11/03 04:23:38;;;;;;;11.13;4.70;;;;;;;14.96;51.36;97413.97;4968399;28;20189;-75
2022/11/03 04:26:13;;;;;;;13.97;4.67;;;;;;;15.20;50.75;97416.94;4967960;28;20221;-75
2022/11/03 04:28:41;;;;;;;15.70;5.10;;;;;;;15.30;50.43;97410.25;4967896;28;20696;-75
2022/11/03 04:31:16;;;;;;;15.03;5.60;;;;;;;15.37;49.90;97412.41;4968151;28;20196;-75
2022/11/03 04:33:44;;;;;;;12.40;5.77;;;;;;;15.52;48.99;97415.91;4966395;28;20605;-76
2022/11/03 04:36:20;;;;;;;11.80;5.27;;;;;;;15.53;49.18;97415.00;4968650;28;20189;-76
2022/11/03 04:38:48;;;;;;;12.70;5.97;;;;;;;15.58;48.29;97419.94;4968036;28;20185;-75
2022/11/03 04:41:20;;;;;;;11.07;5.57;;;;;;;15.73;47.67;97424.25;4967969;28;20641;-73
2022/11/03 04:43:50;;;;;;;9.80;5.83;;;;;;;15.84;47.33;97414.84;4967854;28;20219;-74
2022/11/03 04:46:25;;;;;;;10.90;5.03;;;;;;;15.84;47.28;97424.44;4966526;28;20669;-75
2022/11/03 04:49:04;;;;;;;12.97;8.17;;;;;;;15.82;47.31;97431.53;4967895;28;20184;-75
2022/11/03 04:51:33;;;;;;;9.20;6.00;;;;;;;15.83;48.33;97439.25;4967772;28;20268;-74
2022/11/03 04:54:05;;;;;;;15.67;7.10;;;;;;;15.90;48.36;97448.44;4967790;28;20662;-74
2022/11/03 04:56:32;;;;;;;19.03;8.27;;;;;;;15.90;48.24;97443.19;4967744;28;20196;-74
2022/11/03 04:58:59;;;;;;;19.37;6.30;;;;;;;15.91;48.42;97449.28;4966384;28;20197;-75
2022/11/03 05:01:27;;;;;;;14.50;6.43;;;;;;;15.76;49.04;97458.03;4966199;28;20276;-75
2022/11/03 05:03:54;;;;;;;22.30;6.40;;;;;;;15.63;50.33;97452.69;4967361;28;20656;-74
2022/11/03 05:06:26;;;;;;;15.20;7.27;;;;;;;15.63;49.93;97457.06;4967631;28;20295;-75
2022/11/03 05:08:58;;;;;;;17.93;7.53;;;;;;;15.69;49.42;97461.91;4967549;28;20694;-74
2022/11/03 05:11:30;;;;;;;32.53;10.73;;;;;;;15.71;50.02;97460.91;4967392;28;20209;-74
2022/11/03 05:14:03;;;;;;;23.97;9.23;;;;;;;15.74;49.84;97463.34;4967375;28;20201;-75
2022/11/03 05:16:30;;;;;;;21.00;6.80;;;;;;;15.63;50.42;97468.34;4965847;28;20209;-74
2022/11/03 05:18:58;;;;;;;23.77;7.33;;;;;;;15.47;51.01;97478.00;4966023;28;20193;-74
2022/11/03 05:21:27;;;;;;;28.90;8.80;;;;;;;15.20;51.70;97474.34;4967137;28;20197;-75
2022/11/03 05:24:00;;;;;;;30.50;8.20;;;;;;;15.36;50.77;97483.81;4967740;28;20669;-73
2022/11/03 05:26:34;;;;;;;38.27;10.70;;;;;;;15.44;50.30;97483.41;4966923;28;20333;-73
2022/11/03 05:29:14;;;;;;;32.00;9.97;;;;;;;15.36;50.35;97470.75;4967268;28;20276;-74
2022/11/03 05:31:42;;;;;;;32.90;9.33;;;;;;;15.33;49.50;97467.50;4965837;28;20210;-74
2022/11/03 05:34:36;;;;;;;24.97;10.73;;;;;;;15.45;49.77;97491.16;4967220;28;20184;-75
2022/11/03 05:37:06;;;;;;;25.17;9.77;;;;;;;15.71;49.18;97494.84;4967358;28;20591;-74
2022/11/03 05:39:36;;;;;;;27.07;9.80;;;;;;;15.95;48.46;97495.19;4966892;28;20199;-74
2022/11/03 05:42:22;;;;;;;27.77;11.27;;;;;;;16.05;48.56;97496.31;4967206;28;20665;-75
2022/11/03 05:44:50;;;;;;;35.53;13.47;;;;;;;16.18;48.09;97505.91;4969130;28;20223;-75
2022/11/03 05:47:20;;;;;;;25.37;11.70;;;;;;;16.11;47.56;97512.44;4970265;28;20618;-74
2022/11/03 05:49:49;;;;;;;28.87;14.00;;;;;;;16.39;47.13;97522.06;4970497;28;20193;-74
2022/11/03 05:52:21;;;;;;;25.03;13.73;;;;;;;16.54;46.24;97521.16;4970103;28;20909;-73
2022/11/03 05:54:49;;;;;;;36.17;13.90;;;;;;;16.80;45.95;97529.97;4970404;28;20706;-73
2022/11/03 05:57:17;;;;;;;24.47;10.83;;;;;;;16.72;45.95;97527.00;4970187;28;20185;-74
2022/11/03 05:59:46;;;;;;;25.97;10.27;;;;;;;16.54;46.19;97536.84;4970208;28;20188;-74
2022/11/03 06:02:21;;;;;;;24.27;10.83;;;;;;;16.48;46.50;97541.56;4969495;28;20218;-75
2022/11/03 06:04:49;;;;;;;21.97;9.50;;;;;;;16.17;46.80;97527.75;4967919;28;20623;-76
2022/11/03 06:07:58;;;;;;;28.00;9.50;;;;;;;16.17;47.49;97539.97;4969044;28;20225;-76
2022/11/03 06:11:19;;;;;;;23.30;9.53;;;;;;;16.08;47.74;97553.59;4968861;28;20279;-76
2022/11/03 06:14:00;;;;;;;22.33;10.17;;;;;;;16.11;48.03;97549.03;4967863;28;20195;-74
2022/11/03 06:16:33;;;;;;;24.17;10.10;;;;;;;16.32;47.95;97551.28;4968482;28;20223;-75
2022/11/03 06:19:14;;;;;;;27.73;10.30;;;;;;;16.32;48.48;97556.50;4969561;28;20212;-74
2022/11/03 06:21:42;;;;;;;28.03;10.23;;;;;;;16.54;47.73;97560.38;4968390;28;20224;-74
2022/11/03 06:24:14;;;;;;;19.33;9.13;;;;;;;16.66;48.18;97559.63;4969817;28;20232;-75
2022/11/03 06:26:43;;;;;;;22.50;9.90;;;;;;;16.69;48.28;97562.03;4968255;28;20311;-77
2022/11/03 06:29:17;;;;;;;26.63;9.83;;;;;;;16.74;48.11;97565.22;4968578;28;20630;-78
2022/11/03 06:31:49;;;;;;;23.47;10.47;;;;;;;16.71;48.28;97575.03;4969514;28;20189;-76
2022/11/03 06:34:24;;;;;;;22.27;11.00;;;;;;;16.74;48.67;97574.84;4969760;28;20195;-76
2022/11/03 06:36:50;;;;;;;19.80;11.10;;;;;;;16.64;48.66;97579.81;4969208;28;20188;-75
2022/11/03 06:39:22;;;;;;;17.77;9.70;;;;;;;16.81;48.37;97576.16;4969753;28;20189;-77
2022/11/03 06:41:50;;;;;;;23.43;11.33;;;;;;;16.84;48.06;97582.03;4969720;28;20200;-77
2022/11/03 06:44:27;;;;;;;21.37;10.07;;;;;;;16.94;48.38;97584.91;4969439;28;20549;-76
2022/11/03 06:47:14;;;;;;;21.87;10.13;;;;;;;16.99;48.14;97588.06;4969316;28;20256;-76
2022/11/03 06:49:42;;;;;;;23.60;10.40;;;;;;;16.78;48.60;97587.63;4983795;28;20670;-75
2022/11/03 06:52:25;;;;;;;26.27;13.77;;;;;;;16.84;48.39;97596.88;4969079;28;20205;-77
2022/11/03 06:55:00;;;;;;;20.43;11.13;;;;;;;17.03;48.42;97598.25;4983849;28;20230;-76
2022/11/03 06:57:34;;;;;;;19.90;9.57;;;;;;;16.85;48.91;97603.81;4969063;28;20197;-74
2022/11/03 07:00:01;;;;;;;18.90;9.20;;;;;;;16.96;48.67;97604.00;4983733;28;20216;-76
2022/11/03 07:03:12;;;;;;;17.93;9.30;;;;;;;16.93;48.60;97591.06;4981255;28;20199;-74
2022/11/03 07:05:40;;;;;;;21.30;11.00;;;;;;;17.15;48.54;97593.19;4983483;28;20292;-76
2022/11/03 07:08:21;;;;;;;24.93;11.20;;;;;;;17.14;48.76;97600.22;4983406;28;20225;-76
2022/11/03 07:10:50;;;;;;;29.73;11.57;;;;;;;17.21;48.43;97596.25;4968625;28;20195;-74
2022/11/03 07:13:23;;;;;;;25.27;10.30;;;;;;;17.21;48.74;97604.09;4968656;28;20189;-74
2022/11/03 07:15:51;;;;;;;23.83;11.13;;;;;;;17.19;48.81;97581.59;4968448;28;20283;-74
2022/11/03 07:18:34;;;;;;;24.97;12.20;;;;;;;17.38;49.12;97597.81;4968823;28;20248;-75
2022/11/03 07:21:06;;;;;;;27.83;13.67;;;;;;;17.53;48.75;97592.47;4967410;28;20247;-77
2022/11/03 07:23:33;;;;;;;21.10;11.90;;;;;;;17.50;48.93;97603.13;4969301;28;20236;-75
2022/11/03 07:26:01;;;;;;;25.63;12.87;;;;;;;17.35;49.16;97603.25;4983145;28;20589;-76
2022/11/03 07:28:36;;;;;;;28.47;12.93;;;;;;;17.34;49.23;97607.63;4982946;28;20319;-75
2022/11/03 07:31:30;;;;;;;27.53;12.67;;;;;;;17.24;49.96;97609.16;4982898;28;20207;-75
2022/11/03 07:33:58;;;;;;;26.40;12.03;;;;;;;17.33;49.88;97616.41;4967291;28;20285;-77
2022/11/03 07:36:29;;;;;;;23.27;11.73;;;;;;;17.34;50.25;97619.88;4968246;28;20185;-77
2022/11/03 07:39:00;;;;;;;23.20;11.43;;;;;;;17.39;49.97;97605.59;4968010;28;20248;-77
2022/11/03 07:41:31;;;;;;;30.40;13.23;;;;;;;17.57;49.74;97600.97;4968334;28;20216;-76
2022/11/03 07:44:01;;;;;;;44.67;14.43;;;;;;;17.80;49.23;97611.59;4982532;28;20189;-76
2022/11/03 07:46:28;;;;;;;40.37;13.67;;;;;;;18.02;47.81;97611.06;4966570;28;20682;-78
2022/11/03 07:48:57;;;;;;;21.77;12.17;;;;;;;18.08;48.22;97601.94;4967950;28;20193;-76
2022/11/03 07:51:33;;;;;;;30.77;12.37;;;;;;;17.95;48.27;97608.94;4968068;28;20195;-77
2022/11/03 07:54:15;;;;;;;28.47;14.50;;;;;;;18.15;47.46;97611.06;4950095;28;20315;-77
2022/11/03 07:56:45;;;;;;;28.60;13.27;;;;;;;18.07;47.41;97603.72;4968109;28;20233;-76
2022/11/03 07:59:20;;;;;;;19.23;11.77;;;;;;;18.18;47.22;97603.00;4966687;28;20332;-74
2022/11/03 08:01:50;;;;;;;21.40;11.63;;;;;;;17.87;47.20;97602.41;4967785;28;20231;-78
2022/11/03 08:04:22;;;;;;;28.77;10.90;;;;;;;18.01;47.46;97605.91;4950571;28;20666;-78
2022/11/03 08:06:49;;;;;;;23.43;13.83;;;;;;;18.04;47.13;97603.06;4967263;28;20233;-76
2022/11/03 08:09:16;;;;;;;36.47;15.50;;;;;;;18.22;46.72;97596.59;4967588;28;20585;-76
2022/11/03 08:11:44;;;;;;;27.13;13.77;;;;;;;18.36;45.94;97597.34;4965569;28;20297;-74
2022/11/03 08:14:12;;;;;;;27.27;12.40;;;;;;;18.32;45.97;97598.50;4966213;28;20260;-77
2022/11/03 08:16:39;;;;;;;16.23;10.63;;;;;;;18.22;46.47;97604.47;4949200;28;20696;-70
2022/11/03 08:19:07;;;;;;;18.23;10.23;;;;;;;18.23;46.63;97603.53;4966311;28;20202;-72
2022/11/03 08:21:34;;;;;;;14.57;9.70;;;;;;;18.23;45.50;97587.81;4951066;28;20393;-72
2022/11/03 08:24:01;;;;;;;17.77;9.33;;;;;;;18.19;45.99;97594.19;4969661;28;20206;-72
2022/11/03 08:26:28;;;;;;;19.60;8.97;;;;;;;18.33;45.70;97599.34;4950613;28;20209;-73
2022/11/03 08:28:55;;;;;;;15.97;9.30;;;;;;;18.30;45.19;97602.19;4966211;28;20199;-72
2022/11/03 08:31:22;;;;;;;13.40;7.47;;;;;;;18.27;45.05;97591.91;4967185;28;20201;-74
2022/11/03 08:33:49;;;;;;;15.27;7.57;;;;;;;18.18;45.06;97597.75;4966960;28;20287;-73
2022/11/03 08:36:16;;;;;;;21.47;8.20;;;;;;;18.23;45.33;97601.75;4967506;28;20790;-73
2022/11/03 08:38:43;;;;;;;15.00;8.17;;;;;;;18.24;45.16;97586.84;4967263;28;20810;-76
2022/11/03 08:41:10;;;;;;;20.00;8.70;;;;;;;18.35;44.34;97597.47;4967222;28;20244;-74
2022/11/03 08:43:37;;;;;;;16.97;8.60;;;;;;;18.59;43.92;97588.78;4967298;28;20189;-75
2022/11/03 08:46:04;;;;;;;26.20;8.97;;;;;;;18.64;43.74;97593.72;4967358;28;20209;-74
2022/11/03 08:48:43;;;;;;;24.30;8.83;;;;;;;18.72;43.38;97577.44;4965854;28;20644;-75
2022/11/03 08:51:12;;;;;;;19.70;8.13;;;;;;;18.81;43.19;97585.53;4967387;28;20227;-75
2022/11/03 08:53:43;;;;;;;15.50;6.90;;;;;;;18.70;43.44;97593.28;4967297;28;20245;-75
2022/11/03 08:56:11;;;;;;;16.33;7.53;;;;;;;18.49;43.58;97576.41;4967297;28;20795;-71
2022/11/03 08:58:47;;;;;;;16.10;6.63;;;;;;;18.58;43.16;97549.53;4965649;28;20245;-75
2022/11/03 09:01:14;;;;;;;15.60;7.60;;;;;;;18.97;42.55;97591.38;4966801;28;20206;-75
2022/11/03 09:03:41;;;;;;;11.77;6.50;;;;;;;18.83;42.30;97590.66;4966653;28;20222;-74
2022/11/03 09:06:08;;;;;;;16.70;6.33;;;;;;;19.05;42.09;97591.66;4966907;28;20252;-72
2022/11/03 09:08:35;;;;;;;23.00;7.57;;;;;;;19.05;41.65;97588.19;4966571;28;20270;-74
2022/11/03 09:11:22;;;;;;;13.63;5.53;;;;;;;19.27;40.67;97575.19;4949127;28;20206;-73
2022/11/03 09:13:49;;;;;;;15.37;7.73;;;;;;;19.51;41.72;97583.16;4966976;28;20188;-74
2022/11/03 09:16:16;;;;;;;16.83;7.03;;;;;;;19.63;41.78;97575.22;4966699;28;20919;-74
2022/11/03 09:18:44;;;;;;;15.63;7.13;;;;;;;19.51;42.21;97570.00;4967188;28;20199;-75
2022/11/03 09:21:12;;;;;;;13.13;7.00;;;;;;;19.74;42.16;97571.78;4968826;28;20322;-75
2022/11/03 09:23:39;;;;;;;12.10;6.70;;;;;;;19.63;41.92;97572.59;4970528;28;20203;-76
2022/11/03 09:26:06;;;;;;;12.50;7.27;;;;;;;19.74;41.79;97562.09;4970536;28;20188;-77
2022/11/03 09:28:33;;;;;;;13.57;6.60;;;;;;;19.44;42.00;97536.31;4970434;28;20369;-77
2022/11/03 09:31:00;;;;;;;13.40;5.93;;;;;;;19.76;42.17;97556.75;4969646;28;20195;-76
2022/11/03 09:33:27;;;;;;;16.87;7.00;;;;;;;19.96;41.64;97556.94;4968937;28;20672;-77
2022/11/03 09:35:54;;;;;;;16.80;6.83;;;;;;;19.81;41.79;97554.59;4970414;28;20238;-77
2022/11/03 09:38:21;;;;;;;15.73;7.70;;;;;;;20.12;41.19;97538.19;4952804;28;20196;-77
2022/11/03 09:40:48;;;;;;;17.83;8.40;;;;;;;19.99;41.19;97534.84;4969856;28;20316;-74
2022/11/03 09:43:55;;;;;;;20.20;6.53;;;;;;;20.37;40.67;97560.88;4969358;28;20211;-76
2022/11/03 09:46:36;;;;;;;18.00;6.03;;;;;;;20.40;40.62;97555.38;4950934;28;20655;-76
2022/11/03 09:49:04;;;;;;;19.37;9.03;;;;;;;20.15;41.03;97551.13;4956002;28;20219;-77
2022/11/03 09:51:33;;;;;;;11.83;6.33;;;;;;;20.23;41.19;97541.75;4969641;28;20214;-74
2022/11/03 09:54:04;;;;;;;16.10;7.00;;;;;;;20.56;40.38;97548.81;4970219;28;20688;-75
2022/11/03 09:56:35;;;;;;;20.40;8.83;;;;;;;20.90;40.12;97545.22;4969247;28;20697;-78
2022/11/03 09:59:13;;;;;;;27.87;8.47;;;;;;;21.01;39.66;97531.22;4968379;28;20200;-75
2022/11/03 10:01:44;;;;;;;17.20;7.40;;;;;;;20.96;40.25;97538.63;4969782;28;20196;-77
2022/11/03 10:04:11;;;;;;;18.23;7.37;;;;;;;20.76;40.80;97544.63;4968566;28;20192;-73
2022/11/03 10:06:39;;;;;;;16.73;6.53;;;;;;;20.72;40.79;97533.50;4969698;28;20193;-74
2022/11/03 10:09:13;;;;;;;13.90;7.00;;;;;;;20.85;40.99;97536.03;4969666;28;20676;-74
2022/11/03 10:11:40;;;;;;;20.37;7.03;;;;;;;20.82;40.44;97528.34;4969421;28;20181;-77
2022/11/03 10:14:12;;;;;;;17.83;7.87;;;;;;;20.92;39.98;97524.88;4969470;28;20195;-75
2022/11/03 10:16:40;;;;;;;11.60;7.07;;;;;;;21.18;39.43;97522.00;4967103;28;20346;-69
2022/11/03 10:19:10;;;;;;;11.13;6.60;;;;;;;21.20;39.67;97505.09;4969487;28;20214;-73
2022/11/03 10:21:38;;;;;;;11.97;6.40;;;;;;;21.27;39.77;97516.00;4952064;28;20204;-75
2022/11/03 10:24:05;;;;;;;14.60;7.10;;;;;;;21.26;40.10;97506.41;4952037;28;20207;-75
2022/11/03 10:26:51;;;;;;;15.70;7.13;;;;;;;21.30;39.96;97503.41;4969768;28;20184;-79
2022/11/03 10:29:24;;;;;;;12.93;7.00;;;;;;;21.66;38.66;97495.09;4967710;28;20196;-79
2022/11/03 10:31:53;;;;;;;10.07;6.17;;;;;;;21.40;39.42;97480.59;4968021;28;20224;-78
2022/11/03 10:34:34;;;;;;;12.07;6.43;;;;;;;21.54;38.84;97495.25;4968384;28;20738;-79
2022/11/03 10:37:16;;;;;;;13.43;6.33;;;;;;;21.33;40.69;97479.41;4965284;28;20235;-77
2022/11/03 10:39:44;;;;;;;16.73;6.87;;;;;;;21.18;39.96;97487.75;4965701;28;20200;-79
2022/11/03 10:42:30;;;;;;;14.27;7.10;;;;;;;21.23;39.80;97478.50;4964616;28;20215;-77
2022/11/03 10:45:19;;;;;;;11.63;6.03;;;;;;;21.19;39.88;97473.59;4964441;28;20240;-79
2022/11/03 10:47:59;;;;;;;16.27;6.27;;;;;;;21.11;39.49;97468.09;4949442;28;20237;-78
2022/11/03 10:50:27;;;;;;;13.73;6.67;;;;;;;21.41;38.93;97465.63;4949850;28;20217;-79
2022/11/03 10:52:54;;;;;;;10.47;6.47;;;;;;;21.24;39.51;97463.53;4950438;28;20190;-79
2022/11/03 10:55:23;;;;;;;12.27;7.13;;;;;;;21.46;38.91;97459.00;4950286;28;20189;-76
2022/11/03 10:57:54;;;;;;;17.37;7.50;;;;;;;21.64;38.92;97454.84;4950044;28;20220;-77
2022/11/03 11:00:23;;;;;;;11.07;6.40;;;;;;;21.48;39.03;97456.22;4948630;28;20837;-76
2022/11/03 11:02:55;;;;;;;11.03;6.30;;;;;;;21.22;39.41;97457.56;4948248;29;20316;-79
2022/11/03 11:05:23;;;;;;;21.27;7.20;;;;;;;21.52;39.05;97447.09;4949961;28;20235;-78
2022/11/03 11:07:51;;;;;;;12.67;6.47;;;;;;;21.78;38.71;97443.16;4948102;28;20228;-78
2022/11/03 11:10:30;;;;;;;16.37;7.47;;;;;;;21.67;38.83;97438.78;4949696;28;20230;-78
2022/11/03 11:13:20;;;;;;;12.77;6.80;;;;;;;21.55;38.96;97433.69;4964045;28;20186;-78
2022/11/03 11:15:51;;;;;;;15.40;7.17;;;;;;;21.86;38.78;97436.28;4949096;28;20272;-76
2022/11/03 11:18:27;;;;;;;13.33;6.13;;;;;;;22.00;38.49;97424.56;4948885;28;20218;-76
2022/11/03 11:20:55;;;;;;;16.00;7.10;;;;;;;21.74;39.33;97418.00;4947146;28;20237;-76
2022/11/03 11:23:28;;;;;;;11.63;7.03;;;;;;;21.68;39.42;97419.34;4949143;28;20574;-76
2022/11/03 11:26:07;;;;;;;13.30;6.43;;;;;;;21.94;39.67;97411.91;4949136;28;20699;-75
2022/11/03 11:28:36;;;;;;;11.30;6.00;;;;;;;21.81;39.62;97416.50;4947671;29;20252;-76
2022/11/03 11:31:21;;;;;;;12.50;6.27;;;;;;;21.60;39.71;97418.31;4949364;28;20193;-77
2022/11/03 11:33:48;;;;;;;10.80;6.80;;;;;;;21.64;40.01;97414.44;4948971;28;20642;-78
2022/11/03 11:36:24;;;;;;;19.77;7.07;;;;;;;21.67;39.82;97414.19;4947666;28;20245;-77
2022/11/03 11:38:51;;;;;;;22.80;6.83;;;;;;;21.99;39.25;97409.69;4948914;28;20237;-78
2022/11/03 11:41:19;;;;;;;17.83;6.60;;;;;;;21.96;39.11;97402.06;4964722;28;20194;-80
2022/11/03 11:43:46;;;;;;;12.40;6.53;;;;;;;21.90;39.26;97393.81;4968206;28;20199;-78
2022/11/03 11:46:22;;;;;;;13.20;6.70;;;;;;;22.08;38.85;97403.63;4950959;28;20279;-77
2022/11/03 11:49:12;;;;;;;17.20;7.37;;;;;;;22.21;38.77;97395.50;4967775;28;20606;-76
2022/11/03 11:51:39;;;;;;;14.80;6.97;;;;;;;22.05;39.23;97395.97;4959141;28;20595;-79
2022/11/03 11:54:10;;;;;;;16.70;6.60;;;;;;;22.26;38.88;97383.56;4968420;28;20256;-78
2022/11/03 11:56:47;;;;;;;15.50;7.07;;;;;;;22.34;38.51;97393.47;4967634;28;20234;-78
2022/11/03 11:59:18;;;;;;;13.37;7.17;;;;;;;22.21;38.49;97372.59;4950420;28;20204;-78
2022/11/03 12:01:52;;;;;;;14.83;7.30;;;;;;;22.39;38.59;97386.81;4967847;28;20634;-78
2022/11/03 12:04:32;;;;;;;17.90;7.53;;;;;;;22.30;39.10;97378.84;4967690;28;20199;-79
2022/11/03 12:06:59;;;;;;;19.63;6.90;;;;;;;22.23;38.89;97377.72;4968300;28;20260;-78